createdAt,value
2022-12-01T00:01:20.236Z,49.42
2022-12-01T00:03:47.411Z,48.05
2022-12-01T00:06:18.642Z,45.85
2022-12-01T00:09:15.148Z,48.70
2022-12-01T00:11:44.946Z,44.38
2022-12-01T00:14:11.672Z,40.70
2022-12-01T00:16:40.521Z,40.75
2022-12-01T00:19:07.336Z,41.75
2022-12-01T00:21:34.106Z,45.10
2022-12-01T00:24:01.556Z,42.58
2022-12-01T00:26:28.562Z,38.92
2022-12-01T00:28:58.927Z,45.58
2022-12-01T00:31:26.410Z,40.58
2022-12-01T00:33:53.349Z,46.30
2022-12-01T00:36:20.442Z,45.63
2022-12-01T00:38:47.420Z,49.95
2022-12-01T00:41:14.279Z,44.97
2022-12-01T00:43:41.139Z,49.03
2022-12-01T00:46:07.968Z,49.63
2022-12-01T00:48:34.808Z,44.95
2022-12-01T00:51:01.536Z,49.03
2022-12-01T00:53:28.278Z,50.47
2022-12-01T00:55:55.320Z,48.60
2022-12-01T00:58:23.596Z,52.08
2022-12-01T01:00:59.006Z,48.05
2022-12-01T01:03:27.504Z,50.30
2022-12-01T01:05:54.698Z,54.78
2022-12-01T01:08:21.570Z,52.65
2022-12-01T01:10:48.995Z,49.00
2022-12-01T01:13:16.376Z,55.30
2022-12-01T01:15:43.125Z,50.28
2022-12-01T01:18:12.245Z,46.35
2022-12-01T01:20:39.692Z,50.47
2022-12-01T01:23:07.020Z,45.65
2022-12-01T01:25:34.106Z,44.13
2022-12-01T01:28:00.849Z,44.38
2022-12-01T01:30:27.853Z,46.53
2022-12-01T01:32:54.731Z,48.72
2022-12-01T01:35:21.437Z,48.92
2022-12-01T01:37:50.001Z,46.45
2022-12-01T01:40:17.286Z,43.15
2022-12-01T01:42:44.036Z,45.92
2022-12-01T01:45:29.469Z,44.90
2022-12-01T01:48:00.253Z,43.75
2022-12-01T01:50:29.001Z,43.95
2022-12-01T01:53:02.143Z,48.33
2022-12-01T01:55:33.554Z,45.28
2022-12-01T01:58:04.694Z,46.75
2022-12-01T02:00:31.570Z,51.05
2022-12-01T02:02:59.347Z,49.45
2022-12-01T02:05:32.089Z,51.38
2022-12-01T02:08:02.317Z,47.42
2022-12-01T02:10:56.257Z,47.17
2022-12-01T02:13:51.390Z,48.15
2022-12-01T02:16:31.771Z,49.35
2022-12-01T02:19:26.556Z,51.55
2022-12-01T02:22:37.344Z,48.45
2022-12-01T02:25:26.426Z,49.92
2022-12-01T02:28:32.446Z,44.95
2022-12-01T02:31:16.794Z,48.35
2022-12-01T02:34:12.831Z,48.28
2022-12-01T02:36:54.877Z,50.08
2022-12-01T02:39:45.130Z,52.42
2022-12-01T02:42:41.227Z,54.63
2022-12-01T02:45:16.802Z,52.50
2022-12-01T02:47:46.269Z,51.83
2022-12-01T02:50:13.870Z,50.22
2022-12-01T02:52:42.797Z,56.95
2022-12-01T02:55:09.763Z,47.10
2022-12-01T02:57:36.472Z,50.33
2022-12-01T03:00:03.809Z,56.55
2022-12-01T03:02:53.111Z,50.88
2022-12-01T03:05:51.840Z,49.95
2022-12-01T03:08:45.940Z,49.90
2022-12-01T03:11:27.187Z,50.85
2022-12-01T03:14:14.737Z,54.78
2022-12-01T03:16:53.048Z,53.95
2022-12-01T03:19:53.571Z,54.13
2022-12-01T03:22:35.376Z,51.80
2022-12-01T03:25:04.295Z,54.97
2022-12-01T03:27:37.723Z,60.38
2022-12-01T03:30:10.265Z,54.08
2022-12-01T03:32:57.599Z,52.25
2022-12-01T03:35:35.989Z,55.83
2022-12-01T03:38:11.940Z,56.03
2022-12-01T03:40:40.840Z,54.22
2022-12-01T03:43:15.709Z,54.60
2022-12-01T03:46:00.475Z,54.38
2022-12-01T03:48:28.267Z,50.28
2022-12-01T03:51:38.801Z,55.22
2022-12-01T03:54:17.926Z,55.85
2022-12-01T03:57:02.910Z,58.67
2022-12-01T03:59:31.386Z,60.28
2022-12-01T04:01:58.508Z,56.65
2022-12-01T04:04:25.338Z,60.30
2022-12-01T04:06:52.565Z,59.55
2022-12-01T04:09:19.410Z,58.40
2022-12-01T04:12:05.011Z,59.00
2022-12-01T04:14:31.994Z,58.53
2022-12-01T04:16:58.733Z,61.22
2022-12-01T04:19:26.494Z,54.38
2022-12-01T04:21:53.278Z,57.13
2022-12-01T04:24:19.998Z,62.03
2022-12-01T04:26:46.867Z,61.05
2022-12-01T04:29:14.269Z,58.70
2022-12-01T04:31:41.121Z,52.50
2022-12-01T04:34:09.621Z,57.42
2022-12-01T04:36:36.360Z,59.20
2022-12-01T04:39:03.807Z,55.13
2022-12-01T04:41:30.648Z,57.05
2022-12-01T04:43:57.751Z,52.30
2022-12-01T04:46:25.380Z,56.90
2022-12-01T04:48:52.544Z,57.40
2022-12-01T04:51:22.505Z,57.83
2022-12-01T04:53:50.670Z,55.97
2022-12-01T04:56:17.543Z,57.25
2022-12-01T04:58:44.600Z,55.70
2022-12-01T05:01:15.382Z,51.40
2022-12-01T05:03:49.206Z,54.38
2022-12-01T05:06:21.026Z,51.75
2022-12-01T05:08:49.252Z,51.08
2022-12-01T05:11:17.940Z,49.42
2022-12-01T05:13:47.110Z,55.65
2022-12-01T05:16:20.645Z,51.63
2022-12-01T05:18:50.586Z,52.42
2022-12-01T05:21:18.540Z,51.97
2022-12-01T05:23:45.768Z,50.35
2022-12-01T05:26:12.561Z,54.58
2022-12-01T05:28:40.861Z,59.08
2022-12-01T05:31:07.942Z,55.05
2022-12-01T05:33:34.823Z,59.45
2022-12-01T05:36:01.597Z,62.42
2022-12-01T05:38:28.348Z,52.25
2022-12-01T05:40:56.314Z,57.88
2022-12-01T05:43:28.936Z,54.88
2022-12-01T05:45:57.232Z,54.65
2022-12-01T05:48:24.741Z,56.42
2022-12-01T05:50:51.687Z,57.78
2022-12-01T05:53:18.986Z,56.88
2022-12-01T05:55:46.149Z,57.22
2022-12-01T05:58:13.720Z,52.00
2022-12-01T06:00:45.718Z,56.60
2022-12-01T06:03:13.792Z,54.33
2022-12-01T06:05:41.119Z,55.67
2022-12-01T06:08:08.315Z,57.60
2022-12-01T06:10:35.126Z,59.08
2022-12-01T06:13:01.921Z,53.60
2022-12-01T06:15:28.768Z,57.45
2022-12-01T06:17:59.349Z,48.22
2022-12-01T06:20:26.412Z,52.13
2022-12-01T06:22:53.486Z,52.15
2022-12-01T06:25:20.416Z,53.95
2022-12-01T06:27:47.384Z,56.88
2022-12-01T06:30:14.479Z,52.17
2022-12-01T06:32:41.335Z,58.35
2022-12-01T06:35:08.560Z,55.30
2022-12-01T06:37:35.388Z,57.53
2022-12-01T06:40:02.142Z,54.08
2022-12-01T06:42:32.465Z,54.40
2022-12-01T06:44:59.221Z,56.20
2022-12-01T06:47:26.768Z,56.05
2022-12-01T06:49:53.544Z,57.53
2022-12-01T06:52:20.257Z,59.45
2022-12-01T06:54:46.988Z,60.42
2022-12-01T06:57:13.908Z,60.15
2022-12-01T06:59:41.001Z,61.10
2022-12-01T07:02:12.811Z,60.42
2022-12-01T07:04:39.660Z,63.60
2022-12-01T07:07:06.590Z,70.85
2022-12-01T07:09:33.880Z,67.95
2022-12-01T07:12:00.630Z,72.13
2022-12-01T07:14:28.097Z,71.38
2022-12-01T07:16:54.927Z,73.15
2022-12-01T07:19:21.811Z,70.32
2022-12-01T07:21:48.617Z,64.47
2022-12-01T07:24:15.373Z,68.43
2022-12-01T07:26:42.649Z,69.25
2022-12-01T07:29:10.685Z,68.97
2022-12-01T07:31:38.639Z,67.85
2022-12-01T07:34:06.341Z,71.63
2022-12-01T07:36:33.103Z,74.22
2022-12-01T07:39:00.644Z,71.75
2022-12-01T07:41:27.402Z,72.47
2022-12-01T07:43:55.611Z,74.88
2022-12-01T07:46:26.682Z,85.00
2022-12-01T07:48:55.726Z,81.15
2022-12-01T07:51:24.765Z,82.50
2022-12-01T07:53:53.272Z,88.93
2022-12-01T07:56:21.990Z,81.18
2022-12-01T07:58:49.022Z,84.43
2022-12-01T08:01:22.298Z,86.10
2022-12-01T08:03:51.401Z,84.18
2022-12-01T08:06:19.539Z,89.97
2022-12-01T08:08:47.227Z,84.80
2022-12-01T08:11:17.755Z,85.47
2022-12-01T08:13:44.986Z,86.05
2022-12-01T08:16:15.867Z,83.82
2022-12-01T08:18:43.381Z,80.55
2022-12-01T08:21:13.917Z,77.05
2022-12-01T08:23:42.182Z,68.60
2022-12-01T08:26:19.692Z,73.40
2022-12-01T08:28:47.362Z,75.63
2022-12-01T08:31:16.488Z,80.25
2022-12-01T08:33:43.523Z,80.40
2022-12-01T08:36:10.618Z,76.97
2022-12-01T08:38:37.460Z,74.90
2022-12-01T08:41:08.258Z,80.80
2022-12-01T08:46:35.564Z,82.75
2022-12-01T08:49:04.581Z,80.90
2022-12-01T08:51:31.696Z,81.15
2022-12-01T08:53:59.680Z,81.38
2022-12-01T08:56:31.833Z,80.15
2022-12-01T08:58:59.153Z,81.70
2022-12-01T09:01:26.422Z,78.15
2022-12-01T09:04:05.677Z,87.25
2022-12-01T09:06:44.528Z,94.50
2022-12-01T09:09:19.443Z,80.65
2022-12-01T09:11:47.583Z,85.00
2022-12-01T09:14:17.011Z,79.80
2022-12-01T09:16:46.332Z,80.10
2022-12-01T09:19:19.201Z,92.65
2022-12-01T09:21:51.786Z,84.28
2022-12-01T09:24:18.553Z,78.25
2022-12-01T09:26:45.320Z,78.28
2022-12-01T09:29:15.568Z,86.00
2022-12-01T09:31:43.232Z,89.28
2022-12-01T09:34:17.732Z,90.13
2022-12-01T09:36:46.242Z,85.32
2022-12-01T09:39:17.401Z,84.03
2022-12-01T09:42:13.799Z,78.18
2022-12-01T09:44:51.349Z,72.20
2022-12-01T09:47:33.868Z,74.38
2022-12-01T09:50:14.614Z,69.57
2022-12-01T09:52:50.727Z,69.75
2022-12-01T09:55:23.172Z,72.28
2022-12-01T09:57:55.607Z,68.45
2022-12-01T10:00:36.514Z,73.85
2022-12-01T10:03:09.750Z,72.40
2022-12-01T10:09:13.661Z,65.60
2022-12-01T10:11:48.452Z,68.40
2022-12-01T10:14:20.790Z,65.47
2022-12-01T10:17:10.862Z,61.47
2022-12-01T10:20:05.899Z,63.15
2022-12-01T10:23:04.791Z,59.22
2022-12-01T10:25:43.788Z,63.03
2022-12-01T10:28:31.681Z,60.65
2022-12-01T10:31:20.191Z,59.97
2022-12-01T10:34:20.095Z,61.85
2022-12-01T10:36:47.135Z,59.22
2022-12-01T10:39:30.118Z,55.33
2022-12-01T10:42:45.956Z,59.25
2022-12-01T10:45:23.756Z,53.70
2022-12-01T10:48:15.812Z,58.95
2022-12-01T10:50:52.449Z,58.85
2022-12-01T10:53:36.591Z,58.15
2022-12-01T10:56:18.181Z,56.58
2022-12-01T10:58:56.821Z,60.60
2022-12-01T11:01:27.606Z,55.30
2022-12-01T11:04:23.675Z,59.47
2022-12-01T11:06:51.453Z,55.92
2022-12-01T11:09:26.439Z,53.45
2022-12-01T11:12:02.857Z,56.40
2022-12-01T11:14:49.482Z,60.33
2022-12-01T11:17:28.301Z,56.72
2022-12-01T11:19:55.483Z,58.35
2022-12-01T11:22:26.945Z,54.85
2022-12-01T11:24:53.655Z,54.92
2022-12-01T11:27:24.751Z,53.38
2022-12-01T11:30:07.386Z,54.70
2022-12-01T11:32:38.460Z,49.45
2022-12-01T11:35:30.178Z,49.35
2022-12-01T11:40:55.491Z,52.05
2022-12-01T11:43:36.476Z,57.10
2022-12-01T11:46:07.591Z,51.10
2022-12-01T11:48:36.340Z,54.85
2022-12-01T11:51:10.961Z,52.58
2022-12-01T11:53:41.419Z,53.25
2022-12-01T11:56:30.078Z,51.70
2022-12-01T11:59:03.057Z,51.00
2022-12-01T12:02:06.581Z,49.03
2022-12-01T12:05:24.025Z,48.70
2022-12-01T12:08:13.704Z,44.58
2022-12-01T12:11:07.582Z,51.92
2022-12-01T12:14:23.721Z,48.10
2022-12-01T12:17:22.896Z,46.67
2022-12-01T12:20:10.460Z,47.40
2022-12-01T12:23:08.186Z,44.60
2022-12-01T12:25:55.994Z,45.33
2022-12-01T12:29:02.737Z,45.45
2022-12-01T12:32:04.544Z,47.08
2022-12-01T12:35:21.152Z,39.63
2022-12-01T12:38:35.888Z,42.08
2022-12-01T12:41:43.407Z,42.67
2022-12-01T12:44:50.466Z,38.67
2022-12-01T12:48:01.817Z,41.13
2022-12-01T12:50:44.883Z,43.83
2022-12-01T12:53:25.426Z,38.65
2022-12-01T12:55:59.759Z,38.92
2022-12-01T12:58:48.950Z,40.63
2022-12-01T13:01:56.647Z,42.55
2022-12-01T13:04:50.586Z,43.20
2022-12-01T13:07:35.375Z,42.70
2022-12-01T13:10:23.448Z,42.63
2022-12-01T13:13:37.655Z,39.47
2022-12-01T13:16:13.632Z,42.55
2022-12-01T13:18:59.731Z,40.15
2022-12-01T13:21:37.092Z,41.65
2022-12-01T13:24:06.164Z,38.45
2022-12-01T13:26:37.603Z,43.72
2022-12-01T13:29:09.103Z,41.42
2022-12-01T13:31:46.592Z,44.05
2022-12-01T13:34:26.404Z,43.92
2022-12-01T13:36:55.473Z,43.67
2022-12-01T13:39:27.876Z,43.03
2022-12-01T13:41:59.983Z,43.22
2022-12-01T13:45:02.259Z,45.33
2022-12-01T13:47:47.273Z,40.55
2022-12-01T13:50:35.842Z,41.63
2022-12-01T13:53:17.564Z,39.08
2022-12-01T13:56:02.808Z,40.92
2022-12-01T13:58:35.312Z,42.65
2022-12-01T14:01:20.497Z,40.90
2022-12-01T14:03:57.030Z,40.95
2022-12-01T14:06:49.166Z,38.90
2022-12-01T14:09:32.832Z,35.90
2022-12-01T14:12:04.746Z,37.83
2022-12-01T14:14:49.249Z,41.63
2022-12-01T14:17:36.346Z,39.13
2022-12-01T14:20:22.220Z,39.28
2022-12-01T14:23:31.531Z,38.38
2022-12-01T14:26:17.915Z,43.10
2022-12-01T14:29:10.800Z,39.80
2022-12-01T14:31:37.862Z,42.25
2022-12-01T14:34:15.736Z,37.88
2022-12-01T14:36:52.379Z,38.65
2022-12-01T14:39:28.837Z,38.50
2022-12-01T14:42:02.961Z,38.53
2022-12-01T14:44:33.598Z,39.72
2022-12-01T14:47:11.268Z,37.67
2022-12-01T14:49:55.625Z,41.92
2022-12-01T14:55:06.650Z,36.45
2022-12-01T14:57:41.548Z,33.73
2022-12-01T15:00:16.528Z,39.63
2022-12-01T15:02:52.580Z,35.45
2022-12-01T15:05:25.128Z,37.70
2022-12-01T15:08:06.760Z,39.85
2022-12-01T15:10:57.406Z,36.15
2022-12-01T15:13:31.101Z,38.72
2022-12-01T15:16:03.874Z,36.55
2022-12-01T15:18:39.719Z,40.78
2022-12-01T15:21:16.516Z,39.22
2022-12-01T15:24:26.790Z,39.72
2022-12-01T15:27:03.288Z,35.85
2022-12-01T15:29:35.724Z,36.35
2022-12-01T15:32:08.054Z,38.10
2022-12-01T15:34:43.825Z,37.47
2022-12-01T15:37:22.713Z,35.03
2022-12-01T15:40:54.165Z,37.60
2022-12-01T15:43:15.555Z,39.28
2022-12-01T15:45:59.312Z,37.85
2022-12-01T15:48:34.254Z,43.25
2022-12-01T15:51:18.418Z,37.35
2022-12-01T15:53:58.936Z,39.90
2022-12-01T15:56:34.493Z,37.00
2022-12-01T15:59:10.330Z,37.42
2022-12-01T16:01:39.576Z,37.17
2022-12-01T16:04:24.022Z,40.08
2022-12-01T16:09:58.071Z,35.25
2022-12-01T16:12:32.220Z,38.55
2022-12-01T16:15:03.248Z,36.60
2022-12-01T16:17:49.947Z,38.80
2022-12-01T16:20:34.057Z,35.28
2022-12-01T16:23:09.657Z,36.53
2022-12-01T16:25:43.472Z,36.05
2022-12-01T16:28:23.650Z,38.70
2022-12-01T16:30:52.820Z,39.25
2022-12-01T16:33:24.513Z,37.67
2022-12-01T16:35:52.712Z,38.97
2022-12-01T16:38:25.600Z,38.42
2022-12-01T16:40:59.505Z,38.25
2022-12-01T16:43:29.333Z,36.90
2022-12-01T16:46:06.318Z,36.75
2022-12-01T16:48:35.008Z,39.70
2022-12-01T16:51:05.035Z,40.17
2022-12-01T16:53:32.381Z,35.83
2022-12-01T16:56:02.047Z,39.55
2022-12-01T16:58:29.510Z,40.33
2022-12-01T17:00:56.549Z,38.53
2022-12-01T17:03:28.441Z,37.38
2022-12-01T17:05:56.123Z,37.50
2022-12-01T17:08:23.168Z,33.70
2022-12-01T17:10:51.275Z,37.65
2022-12-01T17:13:25.077Z,34.88
2022-12-01T17:15:54.742Z,35.97
2022-12-01T17:18:24.110Z,33.60
2022-12-01T17:21:03.364Z,35.15
2022-12-01T17:23:32.907Z,34.90
2022-12-01T17:26:01.094Z,37.80
2022-12-01T17:28:27.872Z,34.78
2022-12-01T17:30:54.797Z,36.65
2022-12-01T17:33:21.820Z,39.78
2022-12-01T17:35:49.879Z,34.25
2022-12-01T17:38:16.840Z,36.90
2022-12-01T17:40:43.607Z,37.30
2022-12-01T17:43:10.429Z,37.15
2022-12-01T17:45:41.883Z,33.63
2022-12-01T17:48:09.086Z,36.60
2022-12-01T17:50:35.862Z,38.38
2022-12-01T17:53:02.612Z,34.60
2022-12-01T17:55:29.325Z,39.85
2022-12-01T17:57:58.693Z,33.72
2022-12-01T18:00:25.476Z,33.97
2022-12-01T18:02:52.347Z,38.72
2022-12-01T18:05:19.257Z,39.25
2022-12-01T18:07:46.120Z,37.30
2022-12-01T18:10:12.932Z,37.25
2022-12-01T18:12:39.731Z,36.60
2022-12-01T18:15:07.126Z,37.30
2022-12-01T18:17:34.107Z,36.70
2022-12-01T18:20:00.862Z,39.15
2022-12-01T18:22:27.826Z,38.60
2022-12-01T18:24:56.283Z,37.67
2022-12-01T18:27:23.066Z,37.13
2022-12-01T18:29:49.886Z,38.38
2022-12-01T18:32:17.038Z,36.88
2022-12-01T18:34:44.024Z,36.83
2022-12-01T18:37:10.825Z,36.35
2022-12-01T18:39:37.728Z,35.42
2022-12-01T18:42:04.694Z,33.53
2022-12-01T18:44:32.011Z,33.25
2022-12-01T18:46:59.125Z,36.28
2022-12-01T18:49:25.951Z,34.55
2022-12-01T18:51:52.710Z,35.75
2022-12-01T18:54:19.533Z,34.90
2022-12-01T18:56:46.352Z,33.40
2022-12-01T18:59:16.861Z,32.35
2022-12-01T19:01:45.925Z,32.25
2022-12-01T19:04:15.714Z,35.17
2022-12-01T19:06:44.680Z,33.72
2022-12-01T19:09:13.678Z,36.17
2022-12-01T19:11:41.940Z,34.53
2022-12-01T19:14:17.664Z,33.42
2022-12-01T19:16:46.046Z,35.88
2022-12-01T19:19:13.061Z,33.85
2022-12-01T19:21:40.634Z,34.13
2022-12-01T19:24:07.665Z,35.50
2022-12-01T19:26:34.484Z,34.83
2022-12-01T19:29:01.226Z,33.50
2022-12-01T19:31:28.689Z,33.38
2022-12-01T19:33:56.140Z,34.25
2022-12-01T19:36:26.599Z,36.28
2022-12-01T19:38:57.493Z,35.28
2022-12-01T19:41:25.396Z,32.65
2022-12-01T19:43:53.580Z,33.72
2022-12-01T19:46:23.656Z,32.10
2022-12-01T19:49:00.719Z,33.55
2022-12-01T19:51:35.634Z,30.65
2022-12-01T19:54:10.508Z,31.02
2022-12-01T19:56:37.296Z,29.73
2022-12-01T19:59:04.979Z,32.75
2022-12-01T20:01:31.795Z,29.92
2022-12-01T20:03:58.662Z,31.58
2022-12-01T20:06:29.721Z,34.92
2022-12-01T20:08:59.251Z,30.45
2022-12-01T20:11:26.948Z,31.30
2022-12-01T20:13:53.918Z,32.28
2022-12-01T20:16:23.619Z,28.90
2022-12-01T20:18:52.015Z,28.35
2022-12-01T20:21:30.565Z,30.55
2022-12-01T20:23:59.729Z,32.60
2022-12-01T20:26:34.881Z,33.38
2022-12-01T20:29:14.808Z,32.47
2022-12-01T20:31:43.797Z,29.63
2022-12-01T20:34:26.033Z,29.75
2022-12-01T20:36:55.598Z,29.98
2022-12-01T20:39:23.262Z,30.05
2022-12-01T20:41:50.632Z,31.63
2022-12-01T20:44:18.244Z,29.58
2022-12-01T20:46:45.824Z,30.60
2022-12-01T20:49:14.977Z,32.83
2022-12-01T20:51:42.231Z,33.05
2022-12-01T20:54:27.848Z,30.05
2022-12-01T20:56:55.578Z,29.08
2022-12-01T20:59:22.421Z,34.95
2022-12-01T21:01:49.263Z,32.50
2022-12-01T21:04:16.086Z,34.00
2022-12-01T21:06:42.983Z,30.90
2022-12-01T21:09:09.787Z,31.80
2022-12-01T21:12:06.418Z,31.30
2022-12-01T21:15:14.328Z,30.40
2022-12-01T21:17:53.063Z,32.25
2022-12-01T21:20:29.828Z,29.98
2022-12-01T21:23:05.925Z,32.03
2022-12-01T21:25:33.457Z,29.50
2022-12-01T21:28:17.977Z,31.70
2022-12-01T21:30:47.092Z,32.80
2022-12-01T21:33:32.739Z,33.65
2022-12-01T21:36:13.471Z,30.80
2022-12-01T21:38:42.699Z,32.38
2022-12-01T21:41:26.861Z,32.45
2022-12-01T21:44:05.786Z,29.45
2022-12-01T21:46:33.182Z,28.75
2022-12-01T21:49:01.341Z,31.42
2022-12-01T21:51:28.160Z,31.98
2022-12-01T21:53:56.535Z,31.17
2022-12-01T21:56:29.033Z,31.08
2022-12-01T21:59:02.812Z,32.92
2022-12-01T22:01:32.114Z,36.47
2022-12-01T22:04:02.715Z,33.22
2022-12-01T22:06:39.503Z,32.17
2022-12-01T22:09:31.718Z,30.38
2022-12-01T22:12:28.567Z,29.40
2022-12-01T22:15:01.529Z,29.77
2022-12-01T22:17:29.992Z,29.65
2022-12-01T22:20:01.553Z,31.35
2022-12-01T22:22:32.587Z,31.48
2022-12-01T22:25:26.342Z,28.55
2022-12-01T22:27:53.361Z,30.13
2022-12-01T22:30:23.596Z,32.70
2022-12-01T22:33:04.049Z,30.15
2022-12-01T22:35:50.891Z,30.88
2022-12-01T22:38:32.674Z,28.50
2022-12-01T22:41:16.096Z,31.90
2022-12-01T22:43:55.935Z,31.50
2022-12-01T22:46:35.711Z,29.67
2022-12-01T22:49:22.613Z,30.92
2022-12-01T22:52:05.210Z,31.13
2022-12-01T22:54:43.383Z,28.35
2022-12-01T22:57:32.947Z,28.50
2022-12-01T23:00:20.621Z,29.85
2022-12-01T23:02:55.523Z,33.03
2022-12-01T23:05:30.041Z,32.72
2022-12-01T23:07:57.586Z,35.10
2022-12-01T23:10:29.139Z,30.80
2022-12-01T23:13:00.779Z,35.55
2022-12-01T23:15:48.642Z,29.55
2022-12-01T23:18:25.634Z,30.42
2022-12-01T23:21:00.805Z,29.70
2022-12-01T23:23:31.683Z,31.58
2022-12-01T23:26:01.344Z,30.13
2022-12-01T23:28:30.480Z,29.60
2022-12-01T23:30:59.731Z,31.85
2022-12-01T23:33:31.274Z,32.58
2022-12-01T23:36:29.340Z,29.77
2022-12-01T23:39:04.426Z,28.27
2022-12-01T23:41:55.060Z,30.08
2022-12-01T23:44:40.841Z,27.65
2022-12-01T23:47:24.250Z,29.92
2022-12-01T23:50:03.925Z,30.50
2022-12-01T23:52:35.944Z,31.55
2022-12-01T23:55:19.505Z,31.23
2022-12-01T23:57:46.279Z,31.77
